sensor_id;sensor_type;location;lat;lon;timestamp;P1;durP1;ratioP1;P2;durP2;ratioP2
12220;SDS011;6173;42.024;23.096;2022-08-25T00:01:09;14.20;;;7.20;;
12220;SDS011;6173;42.024;23.096;2022-08-25T00:03:38;14.57;;;7.53;;
12220;SDS011;6173;42.024;23.096;2022-08-25T00:06:07;13.67;;;7.33;;
12220;SDS011;6173;42.024;23.096;2022-08-25T00:08:35;21.17;;;7.50;;
12220;SDS011;6173;42.024;23.096;2022-08-25T00:11:03;16.57;;;7.43;;
12220;SDS011;6173;42.024;23.096;2022-08-25T00:13:30;13.33;;;7.17;;
12220;SDS011;6173;42.024;23.096;2022-08-25T00:15:59;15.43;;;6.73;;
12220;SDS011;6173;42.024;23.096;2022-08-25T00:18:28;22.20;;;7.90;;
12220;SDS011;6173;42.024;23.096;2022-08-25T00:20:55;16.63;;;6.97;;
12220;SDS011;6173;42.024;23.096;2022-08-25T00:23:23;13.50;;;7.27;;
12220;SDS011;6173;42.024;23.096;2022-08-25T00:25:50;14.10;;;7.57;;
12220;SDS011;6173;42.024;23.096;2022-08-25T00:28:17;13.90;;;6.97;;
12220;SDS011;6173;42.024;23.096;2022-08-25T00:30:44;15.77;;;7.50;;
12220;SDS011;6173;42.024;23.096;2022-08-25T00:33:18;18.70;;;7.57;;
12220;SDS011;6173;42.024;23.096;2022-08-25T00:36:26;18.97;;;7.27;;
12220;SDS011;6173;42.024;23.096;2022-08-25T00:39:19;19.90;;;7.13;;
12220;SDS011;6173;42.024;23.096;2022-08-25T00:43:46;17.03;;;7.10;;
12220;SDS011;6173;42.024;23.096;2022-08-25T00:45:58;14.90;;;6.80;;
12220;SDS011;6173;42.024;23.096;2022-08-25T00:48:50;13.10;;;6.40;;
12220;SDS011;6173;42.024;23.096;2022-08-25T00:51:41;16.00;;;7.27;;
12220;SDS011;6173;42.024;23.096;2022-08-25T00:54:35;21.97;;;6.93;;
12220;SDS011;6173;42.024;23.096;2022-08-25T00:57:29;15.63;;;6.77;;
12220;SDS011;6173;42.024;23.096;2022-08-25T01:00:00;18.00;;;7.10;;
12220;SDS011;6173;42.024;23.096;2022-08-25T01:02:31;16.03;;;7.07;;
12220;SDS011;6173;42.024;23.096;2022-08-25T01:04:58;13.83;;;6.97;;
12220;SDS011;6173;42.024;23.096;2022-08-25T01:07:24;15.87;;;7.33;;
12220;SDS011;6173;42.024;23.096;2022-08-25T01:09:51;21.93;;;6.77;;
12220;SDS011;6173;42.024;23.096;2022-08-25T01:12:19;23.23;;;7.47;;
12220;SDS011;6173;42.024;23.096;2022-08-25T01:14:47;15.50;;;7.23;;
12220;SDS011;6173;42.024;23.096;2022-08-25T01:17:16;19.13;;;8.60;;
12220;SDS011;6173;42.024;23.096;2022-08-25T01:19:44;16.93;;;6.50;;
12220;SDS011;6173;42.024;23.096;2022-08-25T01:22:12;17.33;;;7.20;;
12220;SDS011;6173;42.024;23.096;2022-08-25T01:24:41;15.43;;;6.77;;
12220;SDS011;6173;42.024;23.096;2022-08-25T01:27:12;18.37;;;7.50;;
12220;SDS011;6173;42.024;23.096;2022-08-25T01:29:39;30.63;;;8.20;;
12220;SDS011;6173;42.024;23.096;2022-08-25T01:32:07;15.80;;;8.10;;
12220;SDS011;6173;42.024;23.096;2022-08-25T01:34:38;12.87;;;7.13;;
12220;SDS011;6173;42.024;23.096;2022-08-25T01:37:09;15.07;;;7.20;;
12220;SDS011;6173;42.024;23.096;2022-08-25T01:39:39;14.40;;;7.77;;
12220;SDS011;6173;42.024;23.096;2022-08-25T01:42:17;17.90;;;6.47;;
12220;SDS011;6173;42.024;23.096;2022-08-25T01:44:49;16.73;;;8.10;;
12220;SDS011;6173;42.024;23.096;2022-08-25T01:47:16;14.10;;;6.87;;
12220;SDS011;6173;42.024;23.096;2022-08-25T01:49:43;17.37;;;7.30;;
12220;SDS011;6173;42.024;23.096;2022-08-25T01:52:11;17.60;;;7.53;;
12220;SDS011;6173;42.024;23.096;2022-08-25T01:54:43;14.43;;;7.10;;
12220;SDS011;6173;42.024;23.096;2022-08-25T01:57:10;16.33;;;7.43;;
12220;SDS011;6173;42.024;23.096;2022-08-25T01:59:36;16.23;;;7.20;;
12220;SDS011;6173;42.024;23.096;2022-08-25T02:02:04;20.37;;;7.53;;
12220;SDS011;6173;42.024;23.096;2022-08-25T02:04:31;18.07;;;6.70;;
12220;SDS011;6173;42.024;23.096;2022-08-25T02:06:58;13.33;;;6.57;;
12220;SDS011;6173;42.024;23.096;2022-08-25T02:09:25;11.83;;;6.70;;
12220;SDS011;6173;42.024;23.096;2022-08-25T02:11:56;15.83;;;6.60;;
12220;SDS011;6173;42.024;23.096;2022-08-25T02:14:23;20.00;;;7.20;;
12220;SDS011;6173;42.024;23.096;2022-08-25T02:16:51;18.83;;;8.40;;
12220;SDS011;6173;42.024;23.096;2022-08-25T02:19:19;15.37;;;7.73;;
12220;SDS011;6173;42.024;23.096;2022-08-25T02:21:47;15.53;;;7.33;;
12220;SDS011;6173;42.024;23.096;2022-08-25T02:31:02;17.43;;;7.20;;
12220;SDS011;6173;42.024;23.096;2022-08-25T02:33:29;13.30;;;8.10;;
12220;SDS011;6173;42.024;23.096;2022-08-25T02:40:19;18.37;;;9.00;;
12220;SDS011;6173;42.024;23.096;2022-08-25T02:43:33;14.43;;;7.83;;
12220;SDS011;6173;42.024;23.096;2022-08-25T02:49:05;15.87;;;8.23;;
12220;SDS011;6173;42.024;23.096;2022-08-25T02:54:57;17.23;;;8.97;;
12220;SDS011;6173;42.024;23.096;2022-08-25T02:57:30;28.67;;;9.53;;
12220;SDS011;6173;42.024;23.096;2022-08-25T03:00:10;20.53;;;8.67;;
12220;SDS011;6173;42.024;23.096;2022-08-25T03:02:41;21.10;;;8.50;;
12220;SDS011;6173;42.024;23.096;2022-08-25T03:05:22;16.93;;;8.37;;
12220;SDS011;6173;42.024;23.096;2022-08-25T03:07:52;18.80;;;9.03;;
12220;SDS011;6173;42.024;23.096;2022-08-25T03:10:26;20.57;;;8.77;;
12220;SDS011;6173;42.024;23.096;2022-08-25T03:13:22;20.73;;;8.37;;
12220;SDS011;6173;42.024;23.096;2022-08-25T03:15:48;18.53;;;9.17;;
12220;SDS011;6173;42.024;23.096;2022-08-25T03:18:17;18.63;;;8.57;;
12220;SDS011;6173;42.024;23.096;2022-08-25T03:20:44;16.08;;;8.75;;
12220;SDS011;6173;42.024;23.096;2022-08-25T03:23:18;12.43;;;8.13;;
12220;SDS011;6173;42.024;23.096;2022-08-25T03:26:05;12.87;;;7.90;;
12220;SDS011;6173;42.024;23.096;2022-08-25T03:32:12;14.93;;;8.27;;
12220;SDS011;6173;42.024;23.096;2022-08-25T03:38:30;14.87;;;8.17;;
12220;SDS011;6173;42.024;23.096;2022-08-25T03:40:57;15.53;;;8.27;;
12220;SDS011;6173;42.024;23.096;2022-08-25T03:52:49;18.57;;;8.63;;
12220;SDS011;6173;42.024;23.096;2022-08-25T03:55:22;19.70;;;8.67;;
12220;SDS011;6173;42.024;23.096;2022-08-25T04:01:01;22.73;;;9.20;;
12220;SDS011;6173;42.024;23.096;2022-08-25T04:03:28;15.73;;;8.87;;
12220;SDS011;6173;42.024;23.096;2022-08-25T04:05:55;20.50;;;9.73;;
12220;SDS011;6173;42.024;23.096;2022-08-25T04:08:26;23.00;;;9.47;;
12220;SDS011;6173;42.024;23.096;2022-08-25T04:10:55;16.13;;;8.83;;
12220;SDS011;6173;42.024;23.096;2022-08-25T04:13:22;21.87;;;8.40;;
12220;SDS011;6173;42.024;23.096;2022-08-25T04:15:49;14.50;;;9.60;;
12220;SDS011;6173;42.024;23.096;2022-08-25T04:18:15;22.67;;;10.33;;
12220;SDS011;6173;42.024;23.096;2022-08-25T04:20:43;17.40;;;9.00;;
12220;SDS011;6173;42.024;23.096;2022-08-25T04:23:11;17.50;;;9.90;;
12220;SDS011;6173;42.024;23.096;2022-08-25T04:25:54;14.40;;;9.00;;
12220;SDS011;6173;42.024;23.096;2022-08-25T04:31:55;17.47;;;8.63;;
12220;SDS011;6173;42.024;23.096;2022-08-25T04:34:32;25.73;;;8.93;;
12220;SDS011;6173;42.024;23.096;2022-08-25T04:36:59;14.93;;;8.70;;
12220;SDS011;6173;42.024;23.096;2022-08-25T04:39:28;15.60;;;7.70;;
12220;SDS011;6173;42.024;23.096;2022-08-25T04:41:55;13.83;;;7.60;;
12220;SDS011;6173;42.024;23.096;2022-08-25T04:44:26;17.37;;;8.73;;
12220;SDS011;6173;42.024;23.096;2022-08-25T04:46:52;14.67;;;8.67;;
12220;SDS011;6173;42.024;23.096;2022-08-25T04:49:19;17.33;;;8.57;;
12220;SDS011;6173;42.024;23.096;2022-08-25T04:51:46;17.03;;;8.73;;
12220;SDS011;6173;42.024;23.096;2022-08-25T04:54:14;14.50;;;8.47;;
12220;SDS011;6173;42.024;23.096;2022-08-25T04:56:45;15.57;;;8.43;;
12220;SDS011;6173;42.024;23.096;2022-08-25T04:59:13;12.67;;;7.83;;
12220;SDS011;6173;42.024;23.096;2022-08-25T05:01:43;15.60;;;8.07;;
12220;SDS011;6173;42.024;23.096;2022-08-25T05:04:12;22.20;;;8.27;;
12220;SDS011;6173;42.024;23.096;2022-08-25T05:06:41;20.77;;;8.17;;
12220;SDS011;6173;42.024;23.096;2022-08-25T05:09:08;19.60;;;7.53;;
12220;SDS011;6173;42.024;23.096;2022-08-25T05:11:35;16.67;;;8.90;;
12220;SDS011;6173;42.024;23.096;2022-08-25T05:14:03;15.63;;;9.47;;
12220;SDS011;6173;42.024;23.096;2022-08-25T05:16:35;19.27;;;10.20;;
12220;SDS011;6173;42.024;23.096;2022-08-25T05:19:04;16.47;;;10.57;;
12220;SDS011;6173;42.024;23.096;2022-08-25T05:21:32;16.30;;;12.23;;
12220;SDS011;6173;42.024;23.096;2022-08-25T05:24:01;23.13;;;13.23;;
12220;SDS011;6173;42.024;23.096;2022-08-25T05:26:31;17.60;;;12.17;;
12220;SDS011;6173;42.024;23.096;2022-08-25T05:29:02;17.60;;;13.17;;
12220;SDS011;6173;42.024;23.096;2022-08-25T05:31:31;18.83;;;12.10;;
12220;SDS011;6173;42.024;23.096;2022-08-25T05:34:05;21.77;;;12.53;;
12220;SDS011;6173;42.024;23.096;2022-08-25T05:36:32;24.17;;;13.37;;
12220;SDS011;6173;42.024;23.096;2022-08-25T05:38:59;22.50;;;12.90;;
12220;SDS011;6173;42.024;23.096;2022-08-25T05:41:28;18.20;;;12.07;;
12220;SDS011;6173;42.024;23.096;2022-08-25T05:43:55;25.27;;;13.27;;
12220;SDS011;6173;42.024;23.096;2022-08-25T05:46:23;18.90;;;10.40;;
12220;SDS011;6173;42.024;23.096;2022-08-25T05:48:51;22.73;;;9.70;;
12220;SDS011;6173;42.024;23.096;2022-08-25T05:51:21;21.33;;;10.97;;
12220;SDS011;6173;42.024;23.096;2022-08-25T05:53:48;21.53;;;11.07;;
12220;SDS011;6173;42.024;23.096;2022-08-25T05:56:16;17.27;;;9.73;;
12220;SDS011;6173;42.024;23.096;2022-08-25T05:58:45;21.43;;;11.60;;
12220;SDS011;6173;42.024;23.096;2022-08-25T06:01:19;17.70;;;10.17;;
12220;SDS011;6173;42.024;23.096;2022-08-25T06:04:05;27.10;;;10.40;;
12220;SDS011;6173;42.024;23.096;2022-08-25T06:06:35;20.13;;;10.37;;
12220;SDS011;6173;42.024;23.096;2022-08-25T06:10:00;17.57;;;10.03;;
12220;SDS011;6173;42.024;23.096;2022-08-25T06:12:28;20.43;;;10.00;;
12220;SDS011;6173;42.024;23.096;2022-08-25T06:14:56;22.97;;;10.40;;
12220;SDS011;6173;42.024;23.096;2022-08-25T06:17:23;18.40;;;10.90;;
12220;SDS011;6173;42.024;23.096;2022-08-25T06:22:48;32.10;;;21.77;;
12220;SDS011;6173;42.024;23.096;2022-08-25T06:25:16;26.53;;;18.93;;
12220;SDS011;6173;42.024;23.096;2022-08-25T06:27:44;26.60;;;16.17;;
12220;SDS011;6173;42.024;23.096;2022-08-25T06:30:12;24.50;;;14.47;;
12220;SDS011;6173;42.024;23.096;2022-08-25T06:32:40;22.77;;;13.57;;
12220;SDS011;6173;42.024;23.096;2022-08-25T06:35:13;30.53;;;16.00;;
12220;SDS011;6173;42.024;23.096;2022-08-25T06:37:41;25.60;;;14.37;;
12220;SDS011;6173;42.024;23.096;2022-08-25T06:40:10;29.93;;;13.80;;
12220;SDS011;6173;42.024;23.096;2022-08-25T06:42:37;26.13;;;14.18;;
12220;SDS011;6173;42.024;23.096;2022-08-25T06:45:05;27.50;;;12.27;;
12220;SDS011;6173;42.024;23.096;2022-08-25T06:47:32;24.93;;;11.90;;
12220;SDS011;6173;42.024;23.096;2022-08-25T06:49:59;21.90;;;11.10;;
12220;SDS011;6173;42.024;23.096;2022-08-25T06:52:28;26.80;;;10.23;;
12220;SDS011;6173;42.024;23.096;2022-08-25T06:54:55;27.93;;;10.77;;
12220;SDS011;6173;42.024;23.096;2022-08-25T06:57:24;33.10;;;12.50;;
12220;SDS011;6173;42.024;23.096;2022-08-25T06:59:51;28.83;;;10.33;;
12220;SDS011;6173;42.024;23.096;2022-08-25T07:02:18;21.10;;;9.87;;
12220;SDS011;6173;42.024;23.096;2022-08-25T07:04:45;19.53;;;8.57;;
12220;SDS011;6173;42.024;23.096;2022-08-25T07:07:12;26.63;;;9.77;;
12220;SDS011;6173;42.024;23.096;2022-08-25T07:09:39;27.53;;;9.57;;
12220;SDS011;6173;42.024;23.096;2022-08-25T07:12:06;22.10;;;9.47;;
12220;SDS011;6173;42.024;23.096;2022-08-25T07:14:34;22.37;;;9.73;;
12220;SDS011;6173;42.024;23.096;2022-08-25T07:17:01;22.97;;;10.23;;
12220;SDS011;6173;42.024;23.096;2022-08-25T07:19:31;23.80;;;10.17;;
12220;SDS011;6173;42.024;23.096;2022-08-25T07:21:58;26.23;;;10.30;;
12220;SDS011;6173;42.024;23.096;2022-08-25T07:24:25;19.50;;;9.53;;
12220;SDS011;6173;42.024;23.096;2022-08-25T07:26:52;19.53;;;9.67;;
12220;SDS011;6173;42.024;23.096;2022-08-25T07:29:21;29.23;;;9.83;;
12220;SDS011;6173;42.024;23.096;2022-08-25T07:31:51;21.13;;;9.53;;
12220;SDS011;6173;42.024;23.096;2022-08-25T07:34:19;25.37;;;9.33;;
12220;SDS011;6173;42.024;23.096;2022-08-25T07:37:03;21.37;;;10.07;;
12220;SDS011;6173;42.024;23.096;2022-08-25T07:39:31;29.53;;;11.07;;
12220;SDS011;6173;42.024;23.096;2022-08-25T07:41:59;24.60;;;10.80;;
12220;SDS011;6173;42.024;23.096;2022-08-25T07:44:26;23.60;;;9.30;;
12220;SDS011;6173;42.024;23.096;2022-08-25T07:46:55;21.23;;;9.83;;
12220;SDS011;6173;42.024;23.096;2022-08-25T07:49:22;25.23;;;10.13;;
12220;SDS011;6173;42.024;23.096;2022-08-25T07:51:52;24.80;;;10.03;;
12220;SDS011;6173;42.024;23.096;2022-08-25T07:54:20;25.63;;;10.90;;
12220;SDS011;6173;42.024;23.096;2022-08-25T07:56:47;19.80;;;9.57;;
12220;SDS011;6173;42.024;23.096;2022-08-25T07:59:13;24.47;;;10.37;;
12220;SDS011;6173;42.024;23.096;2022-08-25T08:01:40;24.77;;;10.33;;
12220;SDS011;6173;42.024;23.096;2022-08-25T08:04:08;26.07;;;9.63;;
12220;SDS011;6173;42.024;23.096;2022-08-25T08:06:35;28.10;;;10.47;;
12220;SDS011;6173;42.024;23.096;2022-08-25T08:09:04;29.50;;;10.70;;
12220;SDS011;6173;42.024;23.096;2022-08-25T08:11:31;26.10;;;9.17;;
12220;SDS011;6173;42.024;23.096;2022-08-25T08:14:04;23.50;;;9.60;;
12220;SDS011;6173;42.024;23.096;2022-08-25T08:16:32;29.60;;;10.40;;
12220;SDS011;6173;42.024;23.096;2022-08-25T08:19:00;24.07;;;10.23;;
12220;SDS011;6173;42.024;23.096;2022-08-25T08:21:30;20.57;;;10.50;;
12220;SDS011;6173;42.024;23.096;2022-08-25T08:23:59;30.83;;;10.80;;
12220;SDS011;6173;42.024;23.096;2022-08-25T08:26:26;34.73;;;11.10;;
12220;SDS011;6173;42.024;23.096;2022-08-25T08:28:54;28.00;;;11.00;;
12220;SDS011;6173;42.024;23.096;2022-08-25T08:31:22;21.70;;;10.33;;
12220;SDS011;6173;42.024;23.096;2022-08-25T08:33:51;22.60;;;9.97;;
12220;SDS011;6173;42.024;23.096;2022-08-25T08:36:19;25.27;;;9.07;;
12220;SDS011;6173;42.024;23.096;2022-08-25T08:38:48;26.97;;;10.47;;
12220;SDS011;6173;42.024;23.096;2022-08-25T08:41:20;19.20;;;10.43;;
12220;SDS011;6173;42.024;23.096;2022-08-25T08:44:21;24.30;;;11.07;;
12220;SDS011;6173;42.024;23.096;2022-08-25T08:46:56;31.80;;;10.03;;
12220;SDS011;6173;42.024;23.096;2022-08-25T08:49:32;24.57;;;10.20;;
12220;SDS011;6173;42.024;23.096;2022-08-25T08:52:03;37.53;;;10.77;;
12220;SDS011;6173;42.024;23.096;2022-08-25T08:54:35;26.60;;;10.23;;
12220;SDS011;6173;42.024;23.096;2022-08-25T08:57:06;27.53;;;10.57;;
12220;SDS011;6173;42.024;23.096;2022-08-25T08:59:42;27.40;;;10.67;;
12220;SDS011;6173;42.024;23.096;2022-08-25T09:02:17;30.13;;;10.20;;
12220;SDS011;6173;42.024;23.096;2022-08-25T09:04:52;32.50;;;14.13;;
12220;SDS011;6173;42.024;23.096;2022-08-25T09:07:23;35.17;;;12.10;;
12220;SDS011;6173;42.024;23.096;2022-08-25T09:09:56;26.97;;;13.37;;
12220;SDS011;6173;42.024;23.096;2022-08-25T09:12:25;28.50;;;9.83;;
12220;SDS011;6173;42.024;23.096;2022-08-25T09:15:02;19.70;;;10.20;;
12220;SDS011;6173;42.024;23.096;2022-08-25T09:17:37;25.37;;;10.00;;
12220;SDS011;6173;42.024;23.096;2022-08-25T09:20:23;28.07;;;11.00;;
12220;SDS011;6173;42.024;23.096;2022-08-25T09:23:01;22.30;;;12.60;;
12220;SDS011;6173;42.024;23.096;2022-08-25T09:25:38;36.73;;;10.67;;
12220;SDS011;6173;42.024;23.096;2022-08-25T09:28:12;38.23;;;9.97;;
12220;SDS011;6173;42.024;23.096;2022-08-25T09:30:46;31.53;;;10.93;;
12220;SDS011;6173;42.024;23.096;2022-08-25T09:33:19;30.97;;;11.00;;
12220;SDS011;6173;42.024;23.096;2022-08-25T09:35:49;27.30;;;11.47;;
12220;SDS011;6173;42.024;23.096;2022-08-25T09:38:16;22.87;;;10.17;;
12220;SDS011;6173;42.024;23.096;2022-08-25T09:40:46;30.20;;;10.53;;
12220;SDS011;6173;42.024;23.096;2022-08-25T09:43:18;23.00;;;9.13;;
12220;SDS011;6173;42.024;23.096;2022-08-25T09:45:48;38.27;;;10.53;;
12220;SDS011;6173;42.024;23.096;2022-08-25T09:48:23;24.50;;;8.63;;
12220;SDS011;6173;42.024;23.096;2022-08-25T09:50:52;23.27;;;9.27;;
12220;SDS011;6173;42.024;23.096;2022-08-25T09:53:25;31.17;;;9.03;;
12220;SDS011;6173;42.024;23.096;2022-08-25T09:55:58;20.57;;;9.57;;
12220;SDS011;6173;42.024;23.096;2022-08-25T09:58:28;33.77;;;8.57;;
12220;SDS011;6173;42.024;23.096;2022-08-25T10:01:00;22.80;;;8.93;;
12220;SDS011;6173;42.024;23.096;2022-08-25T10:03:29;35.03;;;8.63;;
12220;SDS011;6173;42.024;23.096;2022-08-25T10:06:04;36.00;;;11.13;;
12220;SDS011;6173;42.024;23.096;2022-08-25T10:08:50;27.03;;;8.37;;
12220;SDS011;6173;42.024;23.096;2022-08-25T10:11:30;30.98;;;8.65;;
12220;SDS011;6173;42.024;23.096;2022-08-25T10:14:00;29.27;;;8.23;;
12220;SDS011;6173;42.024;23.096;2022-08-25T10:16:29;36.53;;;7.50;;
12220;SDS011;6173;42.024;23.096;2022-08-25T10:19:01;38.77;;;9.87;;
12220;SDS011;6173;42.024;23.096;2022-08-25T10:21:31;26.67;;;8.10;;
12220;SDS011;6173;42.024;23.096;2022-08-25T10:23:58;30.57;;;8.43;;
12220;SDS011;6173;42.024;23.096;2022-08-25T10:26:29;23.57;;;7.67;;
12220;SDS011;6173;42.024;23.096;2022-08-25T10:29:05;29.83;;;8.97;;
12220;SDS011;6173;42.024;23.096;2022-08-25T10:31:43;31.33;;;8.03;;
12220;SDS011;6173;42.024;23.096;2022-08-25T10:34:21;30.90;;;8.40;;
12220;SDS011;6173;42.024;23.096;2022-08-25T10:37:03;35.50;;;7.27;;
12220;SDS011;6173;42.024;23.096;2022-08-25T10:39:39;31.87;;;7.17;;
12220;SDS011;6173;42.024;23.096;2022-08-25T10:42:12;32.63;;;8.00;;
12220;SDS011;6173;42.024;23.096;2022-08-25T10:45:00;25.50;;;7.93;;
12220;SDS011;6173;42.024;23.096;2022-08-25T10:48:00;33.30;;;7.63;;
12220;SDS011;6173;42.024;23.096;2022-08-25T10:50:46;30.57;;;7.03;;
12220;SDS011;6173;42.024;23.096;2022-08-25T10:53:21;35.43;;;7.80;;
12220;SDS011;6173;42.024;23.096;2022-08-25T10:55:57;29.53;;;6.97;;
12220;SDS011;6173;42.024;23.096;2022-08-25T10:58:34;36.53;;;6.37;;
12220;SDS011;6173;42.024;23.096;2022-08-25T11:01:30;30.33;;;5.13;;
12220;SDS011;6173;42.024;23.096;2022-08-25T11:04:04;35.03;;;6.20;;
12220;SDS011;6173;42.024;23.096;2022-08-25T11:06:37;49.03;;;6.20;;
12220;SDS011;6173;42.024;23.096;2022-08-25T11:09:11;28.13;;;4.93;;
12220;SDS011;6173;42.024;23.096;2022-08-25T11:11:43;25.10;;;5.10;;
12220;SDS011;6173;42.024;23.096;2022-08-25T11:14:18;28.37;;;5.53;;
12220;SDS011;6173;42.024;23.096;2022-08-25T11:16:50;31.33;;;4.97;;
12220;SDS011;6173;42.024;23.096;2022-08-25T11:19:23;26.73;;;4.67;;
12220;SDS011;6173;42.024;23.096;2022-08-25T11:21:58;31.13;;;5.60;;
12220;SDS011;6173;42.024;23.096;2022-08-25T11:24:39;29.33;;;5.30;;
12220;SDS011;6173;42.024;23.096;2022-08-25T11:27:14;23.57;;;4.60;;
12220;SDS011;6173;42.024;23.096;2022-08-25T11:29:52;34.93;;;4.77;;
12220;SDS011;6173;42.024;23.096;2022-08-25T11:32:25;23.40;;;4.37;;
12220;SDS011;6173;42.024;23.096;2022-08-25T11:34:58;34.03;;;5.63;;
12220;SDS011;6173;42.024;23.096;2022-08-25T11:37:26;25.40;;;5.27;;
12220;SDS011;6173;42.024;23.096;2022-08-25T11:40:13;26.30;;;4.93;;
12220;SDS011;6173;42.024;23.096;2022-08-25T11:42:50;20.67;;;4.93;;
12220;SDS011;6173;42.024;23.096;2022-08-25T11:48:27;36.03;;;4.67;;
12220;SDS011;6173;42.024;23.096;2022-08-25T11:51:02;26.70;;;4.57;;
12220;SDS011;6173;42.024;23.096;2022-08-25T11:53:32;31.57;;;5.23;;
12220;SDS011;6173;42.024;23.096;2022-08-25T11:56:01;19.70;;;3.90;;
12220;SDS011;6173;42.024;23.096;2022-08-25T11:58:31;36.77;;;5.70;;
12220;SDS011;6173;42.024;23.096;2022-08-25T12:01:04;24.13;;;4.97;;
12220;SDS011;6173;42.024;23.096;2022-08-25T12:03:49;21.50;;;4.50;;
12220;SDS011;6173;42.024;23.096;2022-08-25T12:06:19;34.03;;;4.70;;
12220;SDS011;6173;42.024;23.096;2022-08-25T12:08:53;29.73;;;5.20;;
12220;SDS011;6173;42.024;23.096;2022-08-25T12:11:46;28.67;;;4.90;;
12220;SDS011;6173;42.024;23.096;2022-08-25T12:17:25;15.13;;;3.70;;
12220;SDS011;6173;42.024;23.096;2022-08-25T12:20:05;21.70;;;4.83;;
12220;SDS011;6173;42.024;23.096;2022-08-25T12:22:43;23.23;;;4.50;;
12220;SDS011;6173;42.024;23.096;2022-08-25T12:34:14;22.87;;;5.17;;
12220;SDS011;6173;42.024;23.096;2022-08-25T12:36:54;16.17;;;4.50;;
12220;SDS011;6173;42.024;23.096;2022-08-25T12:39:28;26.00;;;4.80;;
12220;SDS011;6173;42.024;23.096;2022-08-25T12:41:57;29.50;;;5.13;;
12220;SDS011;6173;42.024;23.096;2022-08-25T12:44:34;22.73;;;4.00;;
12220;SDS011;6173;42.024;23.096;2022-08-25T12:47:05;19.00;;;4.30;;
12220;SDS011;6173;42.024;23.096;2022-08-25T12:49:38;25.33;;;4.30;;
12220;SDS011;6173;42.024;23.096;2022-08-25T12:52:05;29.57;;;5.27;;
12220;SDS011;6173;42.024;23.096;2022-08-25T12:54:38;22.30;;;4.00;;
12220;SDS011;6173;42.024;23.096;2022-08-25T12:57:20;19.23;;;3.77;;
12220;SDS011;6173;42.024;23.096;2022-08-25T12:59:55;28.27;;;4.43;;
12220;SDS011;6173;42.024;23.096;2022-08-25T13:08:44;19.63;;;3.80;;
12220;SDS011;6173;42.024;23.096;2022-08-25T13:11:19;21.80;;;4.20;;
12220;SDS011;6173;42.024;23.096;2022-08-25T13:13:55;13.40;;;3.50;;
12220;SDS011;6173;42.024;23.096;2022-08-25T13:16:27;25.67;;;4.57;;
12220;SDS011;6173;42.024;23.096;2022-08-25T13:18:55;28.80;;;4.00;;
12220;SDS011;6173;42.024;23.096;2022-08-25T13:21:27;24.43;;;4.37;;
12220;SDS011;6173;42.024;23.096;2022-08-25T13:23:57;20.80;;;4.10;;
12220;SDS011;6173;42.024;23.096;2022-08-25T13:26:26;19.83;;;4.10;;
12220;SDS011;6173;42.024;23.096;2022-08-25T13:28:56;17.67;;;4.23;;
12220;SDS011;6173;42.024;23.096;2022-08-25T13:31:24;19.57;;;3.63;;
12220;SDS011;6173;42.024;23.096;2022-08-25T13:33:54;15.70;;;4.10;;
12220;SDS011;6173;42.024;23.096;2022-08-25T13:36:23;25.10;;;4.80;;
12220;SDS011;6173;42.024;23.096;2022-08-25T13:39:12;35.60;;;5.10;;
12220;SDS011;6173;42.024;23.096;2022-08-25T13:41:43;16.40;;;4.07;;
12220;SDS011;6173;42.024;23.096;2022-08-25T13:44:12;25.40;;;4.27;;
12220;SDS011;6173;42.024;23.096;2022-08-25T13:46:39;27.63;;;4.53;;
12220;SDS011;6173;42.024;23.096;2022-08-25T13:49:07;17.70;;;4.10;;
12220;SDS011;6173;42.024;23.096;2022-08-25T13:51:34;20.40;;;4.43;;
12220;SDS011;6173;42.024;23.096;2022-08-25T13:54:07;21.25;;;4.55;;
12220;SDS011;6173;42.024;23.096;2022-08-25T13:56:50;24.17;;;4.07;;
12220;SDS011;6173;42.024;23.096;2022-08-25T13:59:18;26.60;;;4.50;;
12220;SDS011;6173;42.024;23.096;2022-08-25T14:01:48;21.27;;;3.80;;
12220;SDS011;6173;42.024;23.096;2022-08-25T14:04:19;22.47;;;4.33;;
12220;SDS011;6173;42.024;23.096;2022-08-25T14:07:07;21.03;;;4.00;;
12220;SDS011;6173;42.024;23.096;2022-08-25T14:09:51;30.63;;;4.33;;
12220;SDS011;6173;42.024;23.096;2022-08-25T14:12:27;21.53;;;4.73;;
12220;SDS011;6173;42.024;23.096;2022-08-25T14:14:58;26.90;;;4.30;;
12220;SDS011;6173;42.024;23.096;2022-08-25T14:17:27;19.20;;;4.07;;
12220;SDS011;6173;42.024;23.096;2022-08-25T14:19:54;19.47;;;4.50;;
12220;SDS011;6173;42.024;23.096;2022-08-25T14:22:22;19.60;;;3.77;;
12220;SDS011;6173;42.024;23.096;2022-08-25T14:24:50;19.10;;;4.37;;
12220;SDS011;6173;42.024;23.096;2022-08-25T14:27:18;27.10;;;3.77;;
12220;SDS011;6173;42.024;23.096;2022-08-25T14:29:46;27.17;;;5.03;;
12220;SDS011;6173;42.024;23.096;2022-08-25T14:32:13;24.37;;;3.97;;
12220;SDS011;6173;42.024;23.096;2022-08-25T14:34:41;19.27;;;4.60;;
12220;SDS011;6173;42.024;23.096;2022-08-25T14:37:10;23.43;;;4.53;;
12220;SDS011;6173;42.024;23.096;2022-08-25T14:39:40;31.03;;;4.50;;
12220;SDS011;6173;42.024;23.096;2022-08-25T14:42:08;23.50;;;4.00;;
12220;SDS011;6173;42.024;23.096;2022-08-25T14:44:39;28.50;;;5.47;;
12220;SDS011;6173;42.024;23.096;2022-08-25T14:47:13;18.40;;;4.00;;
12220;SDS011;6173;42.024;23.096;2022-08-25T14:49:40;25.93;;;4.70;;
12220;SDS011;6173;42.024;23.096;2022-08-25T14:52:13;26.47;;;4.23;;
12220;SDS011;6173;42.024;23.096;2022-08-25T14:54:45;23.07;;;4.53;;
12220;SDS011;6173;42.024;23.096;2022-08-25T14:57:12;22.33;;;4.60;;
12220;SDS011;6173;42.024;23.096;2022-08-25T14:59:40;24.07;;;4.63;;
12220;SDS011;6173;42.024;23.096;2022-08-25T15:02:07;25.30;;;4.30;;
12220;SDS011;6173;42.024;23.096;2022-08-25T15:04:38;29.60;;;4.50;;
12220;SDS011;6173;42.024;23.096;2022-08-25T15:07:05;31.73;;;4.53;;
12220;SDS011;6173;42.024;23.096;2022-08-25T15:09:52;26.57;;;4.17;;
12220;SDS011;6173;42.024;23.096;2022-08-25T15:12:18;21.20;;;3.73;;
12220;SDS011;6173;42.024;23.096;2022-08-25T15:14:47;16.20;;;3.90;;
12220;SDS011;6173;42.024;23.096;2022-08-25T15:17:13;23.77;;;3.50;;
12220;SDS011;6173;42.024;23.096;2022-08-25T15:19:43;30.13;;;4.20;;
12220;SDS011;6173;42.024;23.096;2022-08-25T15:22:10;18.73;;;4.00;;
12220;SDS011;6173;42.024;23.096;2022-08-25T15:24:37;22.10;;;3.93;;
12220;SDS011;6173;42.024;23.096;2022-08-25T15:27:04;24.87;;;4.30;;
12220;SDS011;6173;42.024;23.096;2022-08-25T15:29:33;15.37;;;4.17;;
12220;SDS011;6173;42.024;23.096;2022-08-25T15:32:01;14.73;;;4.23;;
12220;SDS011;6173;42.024;23.096;2022-08-25T15:34:31;23.30;;;5.07;;
12220;SDS011;6173;42.024;23.096;2022-08-25T15:37:06;23.00;;;4.50;;
12220;SDS011;6173;42.024;23.096;2022-08-25T15:39:35;15.57;;;3.67;;
12220;SDS011;6173;42.024;23.096;2022-08-25T15:42:02;27.13;;;4.23;;
12220;SDS011;6173;42.024;23.096;2022-08-25T15:44:29;23.10;;;4.90;;
12220;SDS011;6173;42.024;23.096;2022-08-25T15:46:56;25.90;;;5.23;;
12220;SDS011;6173;42.024;23.096;2022-08-25T15:49:24;23.10;;;3.80;;
12220;SDS011;6173;42.024;23.096;2022-08-25T15:51:51;25.03;;;5.00;;
12220;SDS011;6173;42.024;23.096;2022-08-25T15:54:20;30.63;;;5.50;;
12220;SDS011;6173;42.024;23.096;2022-08-25T15:56:48;27.43;;;5.50;;
12220;SDS011;6173;42.024;23.096;2022-08-25T15:59:14;22.13;;;5.00;;
12220;SDS011;6173;42.024;23.096;2022-08-25T16:01:41;21.00;;;4.10;;
12220;SDS011;6173;42.024;23.096;2022-08-25T16:04:22;17.87;;;4.47;;